Time;durP1;ratioP1;P1;durP2;ratioP2;P2;SDS_P1;SDS_P2;PMS_P1;PMS_P2;Temp;Humidity;BMP_temperature;BMP_pressure;BME280_temperature;BME280_humidity;BME280_pressure;Samples;Min_cycle;Max_cycle;Signal;HPM_P1;HPM_P2
2023/09/22 07:32:40;;;;;;;0.60;0.28;;;20.10;99.90;;;;;;2765266;23;20584;-76
2023/09/22 07:35:08;;;;;;;2.95;0.50;;;20.00;99.90;;;;;;4935313;29;20277;-74
2023/09/22 07:37:35;;;;;;;1.88;0.50;;;20.10;99.90;;;;;;4937706;29;20200;-74
2023/09/22 07:40:04;;;;;;;1.23;0.60;;;20.30;99.90;;;;;;4937613;29;20260;-74
2023/09/22 07:42:31;;;;;;;1.38;0.40;;;20.30;99.90;;;;;;4937584;29;20204;-74
2023/09/22 07:44:59;;;;;;;1.70;0.52;;;20.60;99.90;;;;;;4937115;29;20244;-73
2023/09/22 07:47:26;;;;;;;0.93;0.40;;;20.50;99.90;;;;;;4937261;29;20201;-72
2023/09/22 07:49:55;;;;;;;1.80;0.57;;;20.50;99.90;;;;;;4941376;29;20216;-73
2023/09/22 07:52:22;;;;;;;0.80;0.40;;;20.50;99.90;;;;;;4936535;29;20230;-74
2023/09/22 07:54:50;;;;;;;3.33;1.02;;;21.10;99.90;;;;;;4936588;29;20710;-73
2023/09/22 07:57:17;;;;;;;0.90;0.40;;;21.40;99.90;;;;;;4936438;29;20664;-74
2023/09/22 07:59:44;;;;;;;1.40;0.40;;;21.40;99.90;;;;;;4936105;29;20260;-72
2023/09/22 08:02:11;;;;;;;0.63;0.50;;;21.30;99.90;;;;;;4937120;29;20209;-72
2023/09/22 08:04:39;;;;;;;0.82;0.40;;;21.10;99.90;;;;;;4937054;29;20237;-72
2023/09/22 08:07:07;;;;;;;1.30;0.88;;;21.00;99.90;;;;;;4937044;29;20257;-72
2023/09/22 08:09:34;;;;;;;0.82;0.20;;;21.00;99.90;;;;;;4937249;29;20279;-72
2023/09/22 08:12:01;;;;;;;0.90;0.40;;;20.90;99.90;;;;;;4936560;29;20275;-72
2023/09/22 08:14:29;;;;;;;1.30;0.30;;;20.50;99.90;;;;;;4937133;29;20750;-72
2023/09/22 08:16:56;;;;;;;1.50;0.30;;;20.40;99.90;;;;;;4937013;29;20204;-74
2023/09/22 08:19:23;;;;;;;0.85;0.30;;;20.00;99.90;;;;;;4936933;29;20256;-73
2023/09/22 08:21:50;;;;;;;0.32;0.20;;;19.70;99.90;;;;;;4936646;29;20292;-73
2023/09/22 08:24:18;;;;;;;2.40;0.40;;;19.20;99.90;;;;;;4933298;29;20240;-75
2023/09/22 08:26:45;;;;;;;1.80;0.65;;;19.30;99.90;;;;;;4942637;29;20291;-72
2023/09/22 08:29:12;;;;;;;1.42;0.43;;;19.40;99.90;;;;;;4934440;29;20208;-73
2023/09/22 08:31:39;;;;;;;1.38;0.30;;;19.40;99.90;;;;;;4934540;29;20324;-75
2023/09/22 08:34:05;;;;;;;1.70;0.40;;;18.80;99.90;;;;;;4934330;29;20739;-72
2023/09/22 08:36:33;;;;;;;0.80;0.30;;;18.30;99.90;;;;;;4934882;29;20213;-73
2023/09/22 08:39:00;;;;;;;2.40;0.60;;;18.00;99.90;;;;;;4934096;29;20212;-73
2023/09/22 08:41:32;;;;;;;0.52;0.22;;;17.90;99.90;;;;;;4934708;29;20244;-73
2023/09/22 08:44:00;;;;;;;0.73;0.38;;;17.70;99.90;;;;;;4933872;29;20301;-73
2023/09/22 08:46:27;;;;;;;0.90;0.30;;;17.30;99.90;;;;;;4916469;29;20656;-73
2023/09/22 08:48:54;;;;;;;0.40;0.20;;;17.30;99.90;;;;;;4934569;29;20232;-73
2023/09/22 08:51:21;;;;;;;0.95;0.35;;;17.20;99.90;;;;;;4935989;29;20268;-73
2023/09/22 08:53:49;;;;;;;0.80;0.30;;;17.30;99.90;;;;;;4935654;29;20655;-73
2023/09/22 08:56:16;;;;;;;2.25;0.50;;;17.80;99.90;;;;;;4935741;29;20217;-74
2023/09/22 08:58:44;;;;;;;0.70;0.38;;;18.20;99.90;;;;;;4935774;29;20247;-73
2023/09/22 09:01:11;;;;;;;2.42;0.32;;;18.80;99.90;;;;;;4935705;29;20636;-73
2023/09/22 09:03:39;;;;;;;4.30;0.30;;;19.10;99.90;;;;;;4935869;29;20634;-73
2023/09/22 09:06:07;;;;;;;1.02;0.40;;;19.40;99.90;;;;;;4935693;29;20220;-73
2023/09/22 09:08:35;;;;;;;1.48;0.77;;;19.70;99.90;;;;;;4933485;29;20224;-73
2023/09/22 09:11:07;;;;;;;1.52;0.70;;;19.80;99.90;;;;;;4934903;29;20851;-73
2023/09/22 09:13:35;;;;;;;2.75;0.40;;;20.10;99.90;;;;;;4935694;29;20215;-73
2023/09/22 09:16:06;;;;;;;1.02;0.30;;;19.90;99.90;;;;;;4934517;29;20243;-72
2023/09/22 09:18:34;;;;;;;1.65;0.30;;;19.60;99.90;;;;;;4932774;29;20583;-73
2023/09/22 09:21:10;;;;;;;0.65;0.25;;;19.10;99.90;;;;;;4934833;29;20307;-73
2023/09/22 09:23:38;;;;;;;1.50;0.43;;;18.80;99.90;;;;;;4935991;29;20208;-72
2023/09/22 09:26:05;;;;;;;1.77;0.32;;;18.70;99.90;;;;;;4935786;29;20510;-72
2023/09/22 09:28:32;;;;;;;0.90;0.20;;;18.50;99.90;;;;;;4934780;29;20236;-72
2023/09/22 09:31:00;;;;;;;1.05;0.28;;;18.70;99.90;;;;;;4935450;29;20228;-72
2023/09/22 09:33:30;;;;;;;1.27;0.32;;;19.00;99.90;;;;;;4935556;29;20248;-72
2023/09/22 09:35:57;;;;;;;2.38;0.60;;;18.80;99.90;;;;;;4935655;29;20243;-72
2023/09/22 09:38:27;;;;;;;1.98;0.50;;;18.60;99.90;;;;;;4934626;29;20271;-72
2023/09/22 09:40:56;;;;;;;0.82;0.35;;;18.40;99.90;;;;;;4935444;29;20584;-72
2023/09/22 09:43:24;;;;;;;0.52;0.28;;;18.10;99.90;;;;;;4934244;29;20205;-71
2023/09/22 09:45:56;;;;;;;1.35;0.82;;;18.00;99.90;;;;;;4935380;29;20232;-72
2023/09/22 09:48:24;;;;;;;1.88;0.30;;;17.90;99.90;;;;;;4934415;29;20209;-72
2023/09/22 09:50:53;;;;;;;0.70;0.30;;;18.30;99.90;;;;;;4935215;29;20262;-72
2023/09/22 09:53:43;;;;;;;1.65;0.40;;;18.70;99.90;;;;;;4935289;28;20240;-72
2023/09/22 09:56:13;;;;;;;0.40;0.30;;;18.80;99.90;;;;;;4936492;29;20236;-72
2023/09/22 09:58:42;;;;;;;1.48;0.50;;;18.90;99.90;;;;;;4938460;29;20251;-72
2023/09/22 10:01:09;;;;;;;2.10;0.43;;;18.30;99.90;;;;;;4922243;29;20224;-72
2023/09/22 10:03:39;;;;;;;4.50;1.00;;;18.00;99.90;;;;;;4937345;29;20228;-72
2023/09/22 10:06:12;;;;;;;0.32;0.20;;;18.00;99.90;;;;;;4939130;29;20209;-72
2023/09/22 10:08:39;;;;;;;0.32;0.20;;;18.30;99.90;;;;;;4938259;29;20224;-72
2023/09/22 10:11:08;;;;;;;0.50;0.30;;;18.50;99.90;;;;;;4938792;29;20239;-74
2023/09/22 10:13:36;;;;;;;0.88;0.30;;;18.80;99.90;;;;;;4935603;29;20667;-73
2023/09/22 10:16:04;;;;;;;0.38;0.20;;;19.00;99.90;;;;;;4938495;29;20208;-73
2023/09/22 10:18:48;;;;;;;1.23;0.50;;;19.30;99.90;;;;;;4937811;29;20696;-73
2023/09/22 10:21:39;;;;;;;0.85;0.40;;;19.30;99.90;;;;;;4937859;29;20664;-72
2023/09/22 10:24:20;;;;;;;1.08;0.30;;;19.40;99.90;;;;;;4921312;29;20245;-73
2023/09/22 10:27:09;;;;;;;1.65;0.40;;;19.50;99.90;;;;;;4937465;29;20204;-73
2023/09/22 10:29:53;;;;;;;0.75;0.30;;;19.50;99.90;;;;;;4937199;29;20760;-73
2023/09/22 10:32:26;;;;;;;1.10;0.40;;;19.60;99.90;;;;;;4938778;29;20640;-73
2023/09/22 10:34:54;;;;;;;0.82;0.25;;;19.70;99.90;;;;;;4937755;29;20216;-72
2023/09/22 10:37:23;;;;;;;1.15;0.40;;;19.70;99.90;;;;;;4935947;29;20877;-72
2023/09/22 10:39:56;;;;;;;1.48;0.60;;;19.80;99.90;;;;;;4938414;29;20316;-72
2023/09/22 10:42:24;;;;;;;1.55;0.30;;;19.90;99.90;;;;;;4937020;29;20287;-72
2023/09/22 10:45:03;;;;;;;1.13;0.40;;;20.00;99.90;;;;;;4938320;29;20307;-72
2023/09/22 10:47:40;;;;;;;0.30;0.20;;;20.20;99.90;;;;;;4938095;29;20204;-72
2023/09/22 10:50:15;;;;;;;1.98;0.50;;;20.30;99.90;;;;;;4937777;29;20263;-72
2023/09/22 10:52:50;;;;;;;1.35;0.60;;;20.30;99.90;;;;;;4938173;29;20326;-72
2023/09/22 10:55:24;;;;;;;0.98;0.30;;;20.30;99.90;;;;;;4938162;29;20240;-72
2023/09/22 10:57:51;;;;;;;1.92;0.50;;;20.20;99.90;;;;;;4938762;29;20247;-72
2023/09/22 11:00:19;;;;;;;1.95;0.40;;;20.10;99.90;;;;;;4937652;29;20264;-71
2023/09/22 11:02:46;;;;;;;0.55;0.30;;;19.80;99.90;;;;;;4938517;29;20213;-72
2023/09/22 11:05:13;;;;;;;2.08;0.50;;;19.70;99.90;;;;;;4937740;29;20295;-72
2023/09/22 11:07:41;;;;;;;0.43;0.30;;;19.80;99.90;;;;;;4937927;29;20240;-72
2023/09/22 11:10:17;;;;;;;1.45;0.38;;;19.70;99.90;;;;;;4936900;29;20337;-73
2023/09/22 11:12:48;;;;;;;1.30;0.30;;;19.70;99.90;;;;;;4937852;29;20282;-73
2023/09/22 11:15:14;;;;;;;3.70;0.40;;;19.70;99.90;;;;;;4937281;29;20731;-72
2023/09/22 11:17:46;;;;;;;1.25;0.63;;;19.70;99.90;;;;;;4937010;29;20300;-73
2023/09/22 11:20:18;;;;;;;0.77;0.20;;;20.10;99.90;;;;;;4936702;29;20328;-72
2023/09/22 11:22:46;;;;;;;0.70;0.30;;;20.10;99.90;;;;;;4937021;29;20208;-72
2023/09/22 11:25:14;;;;;;;1.25;0.40;;;20.20;99.90;;;;;;4937811;29;20209;-72
2023/09/22 11:27:46;;;;;;;1.10;0.30;;;20.10;99.90;;;;;;4937769;29;20209;-73
2023/09/22 11:30:16;;;;;;;2.75;0.38;;;19.90;99.90;;;;;;4936796;29;20240;-72
2023/09/22 11:32:44;;;;;;;2.45;0.43;;;19.90;99.90;;;;;;4937425;29;20248;-72
2023/09/22 11:35:27;;;;;;;1.17;0.30;;;19.90;99.90;;;;;;4936551;29;20296;-72
2023/09/22 11:37:55;;;;;;;1.33;0.40;;;19.80;99.90;;;;;;4936149;29;20563;-72
2023/09/22 11:40:25;;;;;;;1.75;0.40;;;19.40;99.90;;;;;;4936311;29;20229;-72
2023/09/22 11:42:52;;;;;;;2.60;0.55;;;19.20;99.90;;;;;;4936263;29;20240;-72
2023/09/22 11:45:23;;;;;;;1.58;0.40;;;18.90;99.90;;;;;;4936818;29;20209;-72
2023/09/22 11:48:02;;;;;;;0.90;0.30;;;18.70;99.90;;;;;;4937701;29;20205;-72
2023/09/22 11:50:30;;;;;;;0.70;0.40;;;18.80;99.90;;;;;;4936028;29;20271;-72
2023/09/22 11:53:09;;;;;;;2.75;0.30;;;18.90;99.90;;;;;;4936768;29;20327;-71
2023/09/22 11:55:37;;;;;;;0.80;0.38;;;18.80;99.90;;;;;;4937332;29;20208;-71
2023/09/22 11:58:05;;;;;;;0.93;0.28;;;18.50;99.90;;;;;;4937141;29;20689;-72
2023/09/22 12:00:32;;;;;;;0.75;0.50;;;18.50;99.90;;;;;;4937105;29;20309;-71
2023/09/22 12:02:59;;;;;;;2.78;0.60;;;18.40;99.90;;;;;;4936940;29;20303;-72
2023/09/22 12:05:26;;;;;;;1.02;0.60;;;18.20;99.90;;;;;;4936763;29;20291;-72
2023/09/22 12:07:53;;;;;;;1.10;0.50;;;18.10;99.90;;;;;;4936419;29;20248;-73
2023/09/22 12:10:21;;;;;;;0.47;0.30;;;18.10;99.90;;;;;;4936022;29;20308;-73
2023/09/22 12:12:50;;;;;;;1.17;0.40;;;18.20;99.90;;;;;;4936515;29;20272;-72
2023/09/22 12:15:17;;;;;;;1.35;0.40;;;18.40;99.90;;;;;;4936928;29;20209;-71
2023/09/22 12:17:44;;;;;;;2.92;0.47;;;18.50;99.90;;;;;;4936048;29;20205;-74
2023/09/22 12:20:12;;;;;;;0.68;0.40;;;18.80;99.90;;;;;;4936387;29;20315;-73
2023/09/22 12:22:39;;;;;;;3.03;0.60;;;18.80;99.90;;;;;;4936642;29;20215;-73
2023/09/22 12:25:08;;;;;;;0.77;0.30;;;18.90;99.90;;;;;;4936383;29;20243;-73
2023/09/22 12:27:35;;;;;;;1.20;0.50;;;19.00;99.90;;;;;;4936827;29;20209;-73
2023/09/22 12:30:03;;;;;;;0.98;0.32;;;19.10;99.90;;;;;;4936734;29;20315;-73
2023/09/22 12:32:30;;;;;;;2.05;0.30;;;19.10;99.90;;;;;;4936686;29;20271;-73
2023/09/22 12:34:59;;;;;;;1.25;0.40;;;19.30;99.90;;;;;;4936835;29;20252;-73
2023/09/22 12:37:26;;;;;;;3.55;0.90;;;19.40;99.90;;;;;;4936873;29;20287;-72
2023/09/22 12:39:52;;;;;;;2.92;0.40;;;19.40;99.90;;;;;;4936882;29;20260;-72
2023/09/22 12:42:19;;;;;;;1.38;0.43;;;19.60;99.90;;;;;;4936788;29;20243;-72
2023/09/22 12:44:46;;;;;;;1.50;0.40;;;19.80;99.90;;;;;;4936581;29;20748;-72
2023/09/22 12:47:15;;;;;;;1.10;0.60;;;19.80;99.90;;;;;;4936628;29;20212;-72
2023/09/22 12:49:42;;;;;;;0.60;0.40;;;19.80;99.90;;;;;;4936350;29;20231;-72
2023/09/22 12:52:09;;;;;;;0.75;0.30;;;19.60;99.90;;;;;;4936384;29;20303;-74
2023/09/22 12:54:36;;;;;;;0.38;0.28;;;19.40;99.90;;;;;;4936664;29;20251;-72
2023/09/22 12:57:03;;;;;;;0.98;0.30;;;19.30;99.90;;;;;;4936533;29;20300;-72
2023/09/22 12:59:30;;;;;;;0.45;0.30;;;19.30;99.90;;;;;;4936165;29;20320;-72
2023/09/22 13:01:57;;;;;;;2.60;0.40;;;19.40;99.90;;;;;;4936491;29;20213;-72
2023/09/22 13:04:30;;;;;;;3.75;0.50;;;19.40;99.90;;;;;;4936285;29;20621;-72
2023/09/22 13:06:57;;;;;;;1.63;0.32;;;19.60;99.90;;;;;;4936121;29;20208;-72
2023/09/22 13:09:25;;;;;;;0.98;0.52;;;19.80;99.90;;;;;;4936093;29;20237;-72
2023/09/22 13:11:52;;;;;;;1.52;0.40;;;19.80;99.90;;;;;;4936202;29;20209;-72
2023/09/22 13:14:20;;;;;;;1.65;0.40;;;19.80;99.90;;;;;;4936177;29;20335;-72
2023/09/22 13:16:47;;;;;;;2.25;0.63;;;19.60;99.90;;;;;;4936158;29;20672;-72
2023/09/22 13:19:13;;;;;;;0.45;0.30;;;19.90;99.90;;;;;;4935991;29;20609;-72
2023/09/22 13:21:42;;;;;;;1.13;0.40;;;19.80;99.90;;;;;;4936163;29;20638;-71
2023/09/22 13:24:09;;;;;;;0.93;0.30;;;19.90;99.90;;;;;;4935915;29;20244;-72
2023/09/22 13:26:36;;;;;;;0.43;0.20;;;20.00;99.90;;;;;;4935843;29;20861;-72
2023/09/22 13:29:05;;;;;;;0.85;0.30;;;20.00;99.90;;;;;;4936088;29;20624;-71
2023/09/22 13:31:32;;;;;;;0.60;0.32;;;19.80;99.90;;;;;;4935800;29;20743;-72
2023/09/22 13:33:59;;;;;;;1.23;0.30;;;19.70;99.90;;;;;;4935586;29;21070;-72
2023/09/22 13:36:26;;;;;;;2.33;0.52;;;19.70;99.90;;;;;;4935711;29;20244;-72
2023/09/22 13:38:54;;;;;;;1.25;0.57;;;19.30;99.90;;;;;;4935426;29;20675;-72
2023/09/22 13:41:21;;;;;;;3.50;0.60;;;18.90;99.90;;;;;;4935684;29;20291;-72
2023/09/22 13:43:48;;;;;;;0.68;0.50;;;18.40;99.90;;;;;;4935740;29;20247;-72
2023/09/22 13:46:16;;;;;;;3.13;0.77;;;18.00;99.90;;;;;;4935376;29;20212;-73
2023/09/22 13:48:44;;;;;;;0.70;0.40;;;17.70;99.90;;;;;;4935333;29;20245;-73
2023/09/22 13:51:11;;;;;;;1.42;0.50;;;17.40;99.90;;;;;;4935658;29;20264;-74
2023/09/22 13:53:38;;;;;;;1.30;0.50;;;17.40;99.90;;;;;;4935337;29;20279;-74
2023/09/22 13:56:15;;;;;;;1.98;0.60;;;17.30;99.90;;;;;;4935804;29;20263;-74
2023/09/22 13:58:42;;;;;;;1.80;0.60;;;17.20;99.90;;;;;;4935616;29;20212;-73
2023/09/22 14:01:12;;;;;;;1.17;0.50;;;17.10;99.90;;;;;;4935394;29;20696;-74
2023/09/22 14:03:39;;;;;;;0.77;0.40;;;17.00;99.90;;;;;;4935557;29;20291;-73
2023/09/22 14:06:07;;;;;;;1.38;0.50;;;17.00;99.90;;;;;;4935374;29;20247;-73
2023/09/22 14:08:34;;;;;;;1.50;0.40;;;17.00;99.90;;;;;;4935582;29;20584;-73
2023/09/22 14:11:01;;;;;;;1.43;0.60;;;17.10;99.90;;;;;;4935355;29;20256;-73
2023/09/22 14:13:30;;;;;;;0.60;0.40;;;17.10;99.90;;;;;;4935633;29;20655;-73
2023/09/22 14:15:57;;;;;;;1.00;0.60;;;16.90;99.90;;;;;;4935532;29;20215;-73
2023/09/22 14:18:24;;;;;;;2.50;0.40;;;16.70;99.90;;;;;;4935271;29;20307;-73
2023/09/22 14:20:51;;;;;;;0.70;0.47;;;16.70;99.90;;;;;;4935133;29;20315;-73
2023/09/22 14:23:18;;;;;;;1.40;0.30;;;16.70;99.90;;;;;;4935535;29;20213;-73
2023/09/22 14:25:47;;;;;;;1.27;0.37;;;16.70;99.90;;;;;;4935366;29;20633;-73
2023/09/22 14:28:14;;;;;;;0.80;0.30;;;16.60;99.90;;;;;;4935481;29;20241;-73
2023/09/22 14:30:43;;;;;;;1.27;0.32;;;16.70;99.90;;;;;;4935128;29;20324;-74
2023/09/22 14:33:10;;;;;;;0.70;0.30;;;16.80;99.90;;;;;;4935288;29;20311;-73
2023/09/22 14:35:37;;;;;;;0.97;0.30;;;16.90;99.90;;;;;;4935143;29;20251;-74
2023/09/22 14:38:04;;;;;;;0.30;0.20;;;16.90;99.90;;;;;;4935180;29;20756;-73
2023/09/22 14:40:31;;;;;;;0.63;0.30;;;16.80;99.90;;;;;;4935199;29;20260;-74
2023/09/22 14:42:59;;;;;;;0.50;0.30;;;16.80;99.90;;;;;;4939005;29;20244;-73
2023/09/22 14:45:27;;;;;;;0.63;0.30;;;16.80;99.90;;;;;;4938462;29;20209;-73
2023/09/22 14:47:57;;;;;;;1.47;0.40;;;16.70;99.90;;;;;;4938673;29;20216;-73
2023/09/22 14:50:25;;;;;;;2.40;0.30;;;16.70;99.90;;;;;;4938688;29;20229;-75
2023/09/22 14:52:52;;;;;;;0.30;0.20;;;16.80;99.90;;;;;;4938991;29;20263;-73
2023/09/22 14:55:20;;;;;;;2.33;0.33;;;16.80;99.90;;;;;;4938783;29;20236;-73
2023/09/22 14:57:47;;;;;;;0.40;0.23;;;16.90;99.90;;;;;;4938615;29;20674;-72
2023/09/22 15:00:14;;;;;;;0.87;0.30;;;17.00;99.90;;;;;;4938240;29;20243;-74
2023/09/22 15:02:42;;;;;;;2.20;0.60;;;16.90;99.90;;;;;;4938741;29;20212;-73
2023/09/22 15:05:11;;;;;;;2.20;0.60;;;16.50;99.90;;;;;;4938737;29;20608;-75
2023/09/22 15:07:38;;;;;;;3.07;0.83;;;16.30;99.90;;;;;;4938665;29;20295;-74
2023/09/22 15:10:07;;;;;;;1.33;0.70;;;16.20;99.90;;;;;;4938600;29;20296;-74
2023/09/22 15:12:34;;;;;;;2.70;0.60;;;15.80;99.90;;;;;;4938442;29;20304;-73
2023/09/22 15:15:02;;;;;;;1.10;0.50;;;15.50;99.90;;;;;;4935705;29;20233;-73
2023/09/22 15:17:29;;;;;;;2.90;0.50;;;15.50;99.90;;;;;;4937776;28;20272;-72
2023/09/22 15:19:56;;;;;;;3.27;0.70;;;15.30;99.90;;;;;;4936123;29;20255;-71
2023/09/22 15:22:28;;;;;;;2.30;0.60;;;15.40;99.90;;;;;;4954142;29;20686;-76
2023/09/22 15:24:55;;;;;;;4.20;0.70;;;15.20;99.90;;;;;;4947208;29;20612;-74
2023/09/22 15:27:22;;;;;;;0.90;0.53;;;15.20;99.90;;;;;;4936319;29;20241;-68
2023/09/22 15:29:49;;;;;;;1.50;0.67;;;15.20;99.90;;;;;;4936448;29;20252;-78
2023/09/22 15:32:16;;;;;;;1.53;0.60;;;15.10;99.90;;;;;;4936670;29;20747;-71
2023/09/22 15:34:43;;;;;;;1.33;0.50;;;15.10;99.90;;;;;;4948939;29;20287;-70
2023/09/22 15:37:10;;;;;;;1.73;0.83;;;15.00;99.90;;;;;;4936293;29;20236;-71
2023/09/22 15:39:38;;;;;;;1.63;0.60;;;14.90;99.90;;;;;;4936154;29;20235;-72
2023/09/22 15:42:07;;;;;;;2.90;0.70;;;14.90;99.90;;;;;;4936090;29;20360;-70
2023/09/22 15:44:35;;;;;;;1.50;0.80;;;14.80;99.90;;;;;;4936146;29;20809;-77
2023/09/22 15:47:02;;;;;;;0.83;0.70;;;14.80;99.90;;;;;;4936845;29;20241;-75
2023/09/22 15:49:30;;;;;;;3.63;1.00;;;14.80;99.90;;;;;;4935880;29;20229;-74
2023/09/22 15:51:57;;;;;;;1.57;0.90;;;14.90;99.90;;;;;;4936285;29;20209;-74
2023/09/22 15:54:24;;;;;;;1.07;0.83;;;14.90;99.90;;;;;;4935693;29;20327;-76
2023/09/22 15:56:52;;;;;;;1.57;0.67;;;14.90;99.90;;;;;;4936062;29;20307;-74
2023/09/22 15:59:19;;;;;;;1.00;0.60;;;14.90;99.90;;;;;;4935670;29;20320;-74
2023/09/22 16:01:46;;;;;;;4.43;0.60;;;14.90;99.90;;;;;;4935906;29;20299;-74
2023/09/22 16:04:13;;;;;;;2.20;0.80;;;14.90;99.90;;;;;;4935698;29;20711;-74
2023/09/22 16:06:40;;;;;;;2.40;0.77;;;14.90;99.90;;;;;;4935826;29;20283;-75
2023/09/22 16:09:07;;;;;;;1.40;0.90;;;14.80;99.90;;;;;;4937593;28;20639;-74
2023/09/22 16:11:35;;;;;;;1.57;0.70;;;14.60;99.90;;;;;;4937338;29;20213;-75
2023/09/22 16:14:03;;;;;;;3.47;1.03;;;14.40;99.90;;;;;;4935495;29;20782;-79
2023/09/22 16:16:30;;;;;;;1.03;0.60;;;14.40;99.90;;;;;;4935729;29;20213;-77
2023/09/22 16:18:58;;;;;;;1.00;0.63;;;14.20;99.90;;;;;;4935168;29;20692;-74
2023/09/22 16:21:25;;;;;;;3.70;0.80;;;14.10;99.90;;;;;;4935498;29;20232;-75
2023/09/22 16:23:52;;;;;;;3.13;1.07;;;14.20;99.90;;;;;;4936116;29;20312;-76
2023/09/22 16:26:19;;;;;;;3.53;0.97;;;14.20;99.90;;;;;;4935371;29;20212;-74
2023/09/22 16:28:45;;;;;;;1.17;0.83;;;14.30;99.90;;;;;;4935752;29;20213;-74
2023/09/22 16:31:14;;;;;;;1.27;1.00;;;14.40;99.90;;;;;;4935713;29;20307;-78
2023/09/22 16:33:41;;;;;;;3.10;1.27;;;14.50;99.90;;;;;;4935415;29;20279;-73
2023/09/22 16:36:08;;;;;;;1.63;1.10;;;14.70;99.90;;;;;;4935087;29;20217;-75
2023/09/22 16:38:35;;;;;;;2.00;1.10;;;14.70;99.90;;;;;;4935471;29;20272;-74
2023/09/22 16:41:02;;;;;;;3.23;1.10;;;14.80;99.90;;;;;;4935385;29;20269;-74
2023/09/22 16:43:30;;;;;;;2.67;1.00;;;14.90;99.90;;;;;;4935342;29;20240;-73
2023/09/22 16:45:56;;;;;;;2.57;0.87;;;14.90;99.90;;;;;;4934953;29;20697;-74
2023/09/22 16:48:25;;;;;;;2.47;0.97;;;14.90;99.90;;;;;;4934735;29;20641;-75
2023/09/22 16:50:52;;;;;;;2.33;1.50;;;14.70;99.90;;;;;;4934016;29;20703;-76
2023/09/22 16:53:19;;;;;;;1.37;0.80;;;14.80;99.90;;;;;;4934920;29;20628;-76
2023/09/22 16:55:46;;;;;;;1.50;1.03;;;14.90;99.90;;;;;;4934577;29;20719;-74
2023/09/22 16:58:13;;;;;;;1.53;0.80;;;14.90;99.90;;;;;;4934957;29;20608;-75
2023/09/22 17:00:40;;;;;;;1.70;1.30;;;15.00;99.90;;;;;;4934813;29;20229;-76
2023/09/22 17:03:07;;;;;;;2.00;1.20;;;14.90;99.90;;;;;;4934532;29;20754;-74
2023/09/22 17:05:36;;;;;;;2.00;1.30;;;14.90;99.90;;;;;;4934162;29;20612;-74
2023/09/22 17:08:04;;;;;;;1.90;1.33;;;14.90;99.90;;;;;;4934370;29;20216;-74
2023/09/22 17:10:31;;;;;;;2.97;1.40;;;14.90;99.90;;;;;;4937356;28;20256;-73
2023/09/22 17:12:58;;;;;;;1.87;1.40;;;14.90;99.90;;;;;;4934894;29;20702;-73
2023/09/22 17:15:26;;;;;;;2.23;1.23;;;14.90;99.90;;;;;;4934184;29;20636;-74
2023/09/22 17:17:53;;;;;;;3.00;1.30;;;14.80;99.90;;;;;;4934600;29;20676;-74
2023/09/22 17:20:20;;;;;;;4.93;1.30;;;14.80;99.90;;;;;;4934567;29;20213;-73
2023/09/22 17:22:48;;;;;;;2.77;1.20;;;14.80;99.90;;;;;;4934635;29;20252;-74
2023/09/22 17:25:15;;;;;;;1.97;1.13;;;14.80;99.90;;;;;;4934332;29;20702;-74
2023/09/22 17:27:42;;;;;;;1.10;1.00;;;14.80;99.90;;;;;;4934366;29;20236;-74
2023/09/22 17:30:10;;;;;;;1.10;0.80;;;14.70;99.90;;;;;;4935563;29;20264;-74
2023/09/22 17:32:37;;;;;;;1.90;1.07;;;14.70;99.90;;;;;;4935698;29;20296;-74
2023/09/22 17:35:05;;;;;;;2.20;1.00;;;14.60;99.90;;;;;;4935754;29;20275;-74
2023/09/22 17:37:32;;;;;;;1.80;1.00;;;14.70;99.90;;;;;;4935847;29;20295;-74
2023/09/22 17:40:00;;;;;;;3.43;1.07;;;14.80;99.90;;;;;;4935473;29;20259;-74
2023/09/22 17:42:27;;;;;;;2.90;1.17;;;14.70;99.90;;;;;;4935805;29;20643;-74
2023/09/22 17:44:54;;;;;;;2.27;0.80;;;14.60;99.90;;;;;;4935954;29;20236;-74
2023/09/22 17:47:21;;;;;;;1.13;0.70;;;14.50;99.90;;;;;;4935905;29;20295;-73
2023/09/22 17:49:48;;;;;;;5.10;1.70;;;14.20;99.90;;;;;;4935541;29;20233;-73
2023/09/22 17:52:15;;;;;;;1.13;0.63;;;14.20;99.90;;;;;;4935749;29;20236;-74
2023/09/22 17:54:42;;;;;;;0.90;0.70;;;14.20;99.90;;;;;;4935492;29;20283;-74
2023/09/22 17:57:10;;;;;;;0.60;0.50;;;14.00;99.90;;;;;;4935819;29;20563;-74
2023/09/22 17:59:38;;;;;;;2.47;0.50;;;13.90;99.90;;;;;;4935553;29;20260;-74
2023/09/22 18:02:05;;;;;;;1.73;0.47;;;13.80;99.90;;;;;;4935691;29;20260;-73
2023/09/22 18:04:33;;;;;;;1.37;0.50;;;13.80;99.90;;;;;;4935439;29;20244;-74
2023/09/22 18:07:00;;;;;;;1.10;0.53;;;13.80;99.90;;;;;;4935582;29;20568;-74
2023/09/22 18:09:29;;;;;;;1.50;1.20;;;13.80;99.90;;;;;;4935386;29;20311;-74
2023/09/22 18:11:56;;;;;;;1.10;0.83;;;13.60;99.90;;;;;;4935350;29;20212;-74
2023/09/22 18:14:24;;;;;;;1.63;0.60;;;13.70;99.90;;;;;;4935263;29;20330;-74
2023/09/22 18:16:52;;;;;;;3.17;1.20;;;13.60;99.90;;;;;;4932649;29;20613;-74
2023/09/22 18:19:19;;;;;;;1.27;0.63;;;13.60;99.90;;;;;;4934387;29;20260;-74
2023/09/22 18:21:46;;;;;;;0.90;0.60;;;13.60;99.90;;;;;;4930778;29;20244;-74
2023/09/22 18:24:12;;;;;;;0.80;0.50;;;13.60;99.90;;;;;;4937064;29;20300;-74
2023/09/22 18:26:39;;;;;;;1.10;0.60;;;13.50;99.90;;;;;;4931109;29;20236;-74
2023/09/22 18:29:07;;;;;;;0.80;0.50;;;13.40;99.90;;;;;;4931782;29;20241;-74
2023/09/22 18:31:37;;;;;;;2.33;0.70;;;13.40;99.90;;;;;;4938225;29;20209;-74
2023/09/22 18:34:07;;;;;;;2.03;0.50;;;13.30;99.90;;;;;;4930287;29;20237;-74
2023/09/22 18:36:34;;;;;;;0.40;0.40;;;13.20;99.90;;;;;;4938108;29;20656;-75
2023/09/22 18:39:01;;;;;;;0.53;0.37;;;13.20;99.90;;;;;;4936181;29;20564;-74
2023/09/22 18:41:28;;;;;;;2.13;0.70;;;13.20;99.90;;;;;;4938011;29;20264;-74
2023/09/22 18:43:55;;;;;;;0.53;0.40;;;13.20;99.90;;;;;;4929042;29;20583;-74
2023/09/22 18:46:22;;;;;;;0.63;0.40;;;13.20;99.90;;;;;;4937943;29;20240;-74
2023/09/22 18:48:50;;;;;;;1.77;0.70;;;13.20;99.90;;;;;;4936437;29;20247;-74
2023/09/22 18:51:20;;;;;;;1.20;0.70;;;13.20;99.90;;;;;;4937745;29;20475;-74
2023/09/22 18:53:47;;;;;;;1.07;0.70;;;13.10;99.90;;;;;;4938042;29;20209;-74
2023/09/22 18:56:14;;;;;;;1.00;0.60;;;13.00;99.90;;;;;;4937239;29;20331;-74
2023/09/22 18:58:41;;;;;;;1.33;0.70;;;13.00;99.90;;;;;;4938125;29;20212;-74
2023/09/22 19:01:08;;;;;;;1.50;0.63;;;13.00;99.90;;;;;;4937553;29;20968;-73
2023/09/22 19:03:35;;;;;;;2.10;0.60;;;13.00;99.90;;;;;;4937925;29;20568;-74
2023/09/22 19:06:04;;;;;;;1.10;0.90;;;13.10;99.90;;;;;;4937512;29;20248;-74
2023/09/22 19:08:31;;;;;;;0.87;0.80;;;13.10;99.90;;;;;;4937822;29;20304;-74
2023/09/22 19:10:58;;;;;;;1.13;0.73;;;13.10;99.90;;;;;;4938064;29;20267;-74
2023/09/22 19:13:25;;;;;;;2.43;0.97;;;13.20;99.90;;;;;;4937866;29;20248;-74
2023/09/22 19:16:00;;;;;;;1.10;0.77;;;13.10;99.90;;;;;;4937314;29;20276;-73
2023/09/22 19:18:28;;;;;;;2.50;0.60;;;13.10;99.90;;;;;;4938098;29;20252;-73
2023/09/22 19:20:55;;;;;;;0.87;0.50;;;13.10;99.90;;;;;;4940424;29;20229;-73
2023/09/22 19:23:23;;;;;;;2.03;0.80;;;13.00;99.90;;;;;;4937768;29;20237;-73
2023/09/22 19:25:50;;;;;;;1.00;0.67;;;13.00;99.90;;;;;;4937236;29;20209;-74
2023/09/22 19:28:17;;;;;;;1.80;0.70;;;13.10;99.90;;;;;;4936834;29;20244;-73
2023/09/22 19:30:44;;;;;;;0.70;0.50;;;13.00;99.90;;;;;;4937686;29;20671;-74
2023/09/22 19:33:11;;;;;;;1.60;0.73;;;12.90;99.90;;;;;;4937066;29;20642;-73
2023/09/22 19:35:39;;;;;;;1.37;0.80;;;12.80;99.90;;;;;;4935486;29;20560;-73
2023/09/22 19:38:06;;;;;;;2.53;1.00;;;12.90;99.90;;;;;;4937101;29;20255;-73
2023/09/22 19:40:37;;;;;;;1.23;0.80;;;12.80;99.90;;;;;;4934582;29;20272;-74
2023/09/22 19:43:04;;;;;;;2.30;0.77;;;12.80;99.90;;;;;;4936803;29;20244;-73
2023/09/22 19:45:31;;;;;;;1.47;0.83;;;12.80;99.90;;;;;;4936789;29;20648;-73
2023/09/22 19:47:58;;;;;;;1.73;0.50;;;12.80;99.90;;;;;;4936525;29;20232;-73
2023/09/22 19:50:24;;;;;;;1.10;0.63;;;12.80;99.90;;;;;;4935908;29;20266;-73
2023/09/22 19:52:51;;;;;;;0.80;0.60;;;12.80;99.90;;;;;;4936787;29;20251;-73
2023/09/22 19:55:18;;;;;;;2.50;0.70;;;12.70;99.90;;;;;;4937238;29;20272;-73
2023/09/22 19:57:46;;;;;;;1.47;0.70;;;12.70;99.90;;;;;;4936884;29;20295;-74
2023/09/22 20:00:14;;;;;;;1.33;0.90;;;12.70;99.90;;;;;;4936830;29;20707;-73
2023/09/22 20:02:42;;;;;;;1.60;0.57;;;12.60;99.90;;;;;;4936767;29;20735;-74
2023/09/22 20:05:13;;;;;;;1.23;0.50;;;12.60;99.90;;;;;;4937160;29;20291;-74
2023/09/22 20:07:40;;;;;;;0.57;0.50;;;12.50;99.90;;;;;;4936539;29;20204;-74
2023/09/22 20:10:10;;;;;;;1.33;0.60;;;12.50;99.90;;;;;;4936984;29;20267;-74
2023/09/22 20:12:37;;;;;;;1.43;0.93;;;12.50;99.90;;;;;;4935932;29;20240;-74
2023/09/22 20:15:07;;;;;;;2.70;0.80;;;12.50;99.90;;;;;;4936297;29;20707;-73
2023/09/22 20:17:34;;;;;;;1.00;0.57;;;12.50;99.90;;;;;;4936689;29;20208;-73
2023/09/22 20:20:01;;;;;;;2.30;0.90;;;12.50;99.90;;;;;;4936165;29;20239;-73
2023/09/22 20:22:28;;;;;;;1.10;0.53;;;12.50;99.90;;;;;;4936264;29;20244;-73
2023/09/22 20:24:55;;;;;;;3.37;0.50;;;12.50;99.90;;;;;;4936052;29;20292;-73